Terminal Aerodrome Forecast
Issued by NWS Charleston, WV

Home | Current Version | Previous Version | Text Only | Print | Product List | Glossary On
Versions: 1 2 3 4 5 6 7 8 9 10 11 12 13 14 15 16 17 18 19 20 21 22 23 24 25
433
FTUS41 KRLX 010424 AAD
TAFHTS
TAF AMD
KHTS 010424Z 0104/0124 VRB03KT 3SM BR SCT009 BKN090
      TEMPO 0104/0105 BKN009
     FM010700 00000KT P6SM SCT050
     FM010900 00000KT 5SM BR BKN035
     FM011500 VRB03KT P6SM BKN025
     FM011700 35006KT P6SM SCT025
     FM012300 35004KT P6SM FEW250=

USA.gov is the U.S. government's official web portal to all federal, state and local government web resources and services.